Time;durP1;ratioP1;P1;durP2;ratioP2;P2;SDS_P1;SDS_P2;PMS_P1;PMS_P2;Temp;Humidity;BMP_temperature;BMP_pressure;BME280_temperature;BME280_humidity;BME280_pressure;Samples;Min_cycle;Max_cycle;Signal;HPM_P1;HPM_P2
2023/02/28 00:01:12;;;;;;;2.15;1.30;;;18.20;40.00;;;;;;4874581;29;20180;-87
2023/02/28 00:03:38;;;;;;;1.60;0.98;;;18.20;40.10;;;;;;4889015;29;20187;-87
2023/02/28 00:06:05;;;;;;;1.33;1.15;;;18.20;40.10;;;;;;4898119;29;20223;-87
2023/02/28 00:08:39;;;;;;;1.10;0.90;;;18.20;40.00;;;;;;4909427;29;20187;-87
2023/02/28 00:11:07;;;;;;;1.10;1.00;;;18.20;40.10;;;;;;4879442;29;20170;-88
2023/02/28 00:13:34;;;;;;;1.67;1.10;;;18.20;40.10;;;;;;4878579;29;20176;-87
2023/02/28 00:16:04;;;;;;;2.90;1.10;;;18.20;40.10;;;;;;4878769;29;20219;-87
2023/02/28 00:18:29;;;;;;;2.05;1.23;;;18.20;40.10;;;;;;4894056;29;20175;-87
2023/02/28 00:20:56;;;;;;;1.38;1.00;;;18.20;40.20;;;;;;4878131;29;20262;-89
2023/02/28 00:23:33;;;;;;;2.15;1.17;;;18.30;40.20;;;;;;4878080;29;20251;-87
2023/02/28 00:26:01;;;;;;;1.90;1.27;;;18.20;40.20;;;;;;4892437;29;20202;-87
2023/02/28 00:28:27;;;;;;;1.73;1.20;;;18.20;40.10;;;;;;4892514;29;20207;-88
2023/02/28 00:30:57;;;;;;;0.80;0.80;;;18.20;40.20;;;;;;4897501;29;20226;-87
2023/02/28 00:33:27;;;;;;;1.27;1.17;;;18.20;40.20;;;;;;4914373;29;20174;-87
2023/02/28 00:36:05;;;;;;;1.33;1.10;;;18.20;40.10;;;;;;4915110;29;20318;-87
2023/02/28 00:38:32;;;;;;;1.30;1.00;;;18.10;40.00;;;;;;4914193;29;20208;-87
2023/02/28 00:40:58;;;;;;;1.48;1.00;;;18.20;40.10;;;;;;4914352;29;20190;-87
2023/02/28 00:43:24;;;;;;;2.63;0.93;;;18.10;40.30;;;;;;4898792;29;20190;-88
2023/02/28 00:45:50;;;;;;;1.48;1.20;;;18.10;40.30;;;;;;4898818;29;20189;-87
2023/02/28 00:48:21;;;;;;;2.88;1.20;;;18.10;40.30;;;;;;4913964;29;20220;-87
2023/02/28 00:50:49;;;;;;;1.95;0.90;;;18.20;40.40;;;;;;4899871;29;20186;-87
2023/02/28 00:53:18;;;;;;;1.15;1.00;;;18.10;40.30;;;;;;4930745;29;20167;-88
2023/02/28 00:55:44;;;;;;;1.13;1.02;;;18.10;40.30;;;;;;4929653;29;20265;-88
2023/02/28 00:58:19;;;;;;;2.70;1.17;;;18.10;40.30;;;;;;4896685;29;20175;-88
2023/02/28 01:00:52;;;;;;;1.15;0.93;;;18.10;40.30;;;;;;4912445;29;20175;-87
2023/02/28 01:03:19;;;;;;;1.88;1.10;;;18.10;40.30;;;;;;4912105;29;20203;-87
2023/02/28 01:05:54;;;;;;;2.00;1.25;;;18.10;40.40;;;;;;4894387;29;20191;-88
2023/02/28 01:08:22;;;;;;;0.80;0.80;;;18.10;40.40;;;;;;4880187;29;20210;-87
2023/02/28 01:10:53;;;;;;;1.67;1.10;;;18.20;40.40;;;;;;4878649;29;20184;-87
2023/02/28 01:13:23;;;;;;;1.05;0.90;;;18.10;40.40;;;;;;4879625;29;20182;-87
2023/02/28 01:15:54;;;;;;;1.48;1.20;;;18.10;40.40;;;;;;4910334;29;20174;-87
2023/02/28 01:18:31;;;;;;;1.75;1.20;;;18.20;40.40;;;;;;4894910;29;20175;-87
2023/02/28 01:20:57;;;;;;;1.00;0.93;;;18.10;40.40;;;;;;4895019;29;20665;-87
2023/02/28 01:23:23;;;;;;;2.03;1.00;;;18.10;40.40;;;;;;4893773;29;20159;-88
2023/02/28 01:25:51;;;;;;;1.83;1.05;;;18.10;40.50;;;;;;4894421;29;20658;-87
2023/02/28 01:28:17;;;;;;;1.75;1.02;;;18.10;40.50;;;;;;4879221;29;20194;-87
2023/02/28 01:30:47;;;;;;;1.20;1.05;;;18.10;40.50;;;;;;4878720;29;20227;-87
2023/02/28 01:33:13;;;;;;;1.27;1.10;;;18.10;40.50;;;;;;4882501;29;20175;-87
2023/02/28 01:35:39;;;;;;;2.70;0.95;;;18.10;40.50;;;;;;4897653;29;20186;-87
2023/02/28 01:38:05;;;;;;;1.08;0.93;;;18.10;40.40;;;;;;4882717;29;20171;-87
2023/02/28 01:40:31;;;;;;;1.17;1.00;;;18.10;40.50;;;;;;4882525;29;20202;-87
2023/02/28 01:43:03;;;;;;;3.00;1.20;;;18.10;40.60;;;;;;4882961;29;20271;-87
2023/02/28 01:45:30;;;;;;;1.77;1.00;;;18.00;40.50;;;;;;4883352;29;20233;-88
2023/02/28 01:48:06;;;;;;;1.10;1.00;;;18.00;40.50;;;;;;4882094;29;20574;-88
2023/02/28 01:50:42;;;;;;;1.10;1.00;;;18.10;40.60;;;;;;4894404;29;20187;-87
2023/02/28 01:53:14;;;;;;;2.40;1.00;;;18.00;40.60;;;;;;4879402;29;20182;-87
2023/02/28 01:55:40;;;;;;;1.10;1.00;;;18.00;40.60;;;;;;4878730;29;20183;-87
2023/02/28 01:58:10;;;;;;;1.45;1.00;;;18.10;40.60;;;;;;4894347;29;20268;-87
2023/02/28 02:00:42;;;;;;;1.50;1.10;;;18.00;40.60;;;;;;4864183;29;20260;-87
2023/02/28 02:03:10;;;;;;;0.95;0.93;;;18.10;40.70;;;;;;4864009;29;20224;-88
2023/02/28 02:05:37;;;;;;;1.50;1.25;;;18.00;40.60;;;;;;4863815;29;20274;-87
2023/02/28 02:08:13;;;;;;;2.20;0.90;;;18.00;40.70;;;;;;4879039;29;20662;-87
2023/02/28 02:10:49;;;;;;;1.35;0.90;;;18.00;40.70;;;;;;4879947;29;20187;-87
2023/02/28 02:13:33;;;;;;;2.20;1.40;;;18.00;40.80;;;;;;4878957;29;20206;-87
2023/02/28 02:16:24;;;;;;;1.08;0.93;;;18.00;40.70;;;;;;4878733;29;20183;-87
2023/02/28 02:19:11;;;;;;;1.08;0.98;;;18.00;40.70;;;;;;4868069;29;20171;-87
2023/02/28 02:22:15;;;;;;;1.45;1.00;;;18.00;40.70;;;;;;4895912;29;20603;-87
2023/02/28 02:25:14;;;;;;;1.63;0.90;;;18.00;40.70;;;;;;4912960;29;20206;-87
2023/02/28 02:28:05;;;;;;;1.02;0.70;;;17.90;40.80;;;;;;4929329;29;20179;-87
2023/02/28 02:30:47;;;;;;;1.42;0.75;;;18.00;40.70;;;;;;4884806;29;20806;-87
2023/02/28 02:33:23;;;;;;;1.50;0.88;;;18.00;40.70;;;;;;4879641;29;20178;-86
2023/02/28 02:35:56;;;;;;;1.48;1.25;;;18.00;40.80;;;;;;4893938;29;20210;-87
2023/02/28 02:38:32;;;;;;;1.15;1.00;;;18.00;40.80;;;;;;4878817;29;20215;-87
2023/02/28 02:41:24;;;;;;;2.00;1.08;;;17.90;40.90;;;;;;4838414;29;20189;-87
2023/02/28 02:43:53;;;;;;;1.98;1.10;;;17.90;40.80;;;;;;4835050;29;20285;-87
2023/02/28 02:46:21;;;;;;;0.70;0.70;;;18.00;40.80;;;;;;4790576;29;20197;-87
2023/02/28 02:48:48;;;;;;;1.38;0.93;;;17.90;40.70;;;;;;4805510;29;20213;-87
2023/02/28 02:51:16;;;;;;;1.00;0.90;;;17.90;40.80;;;;;;4820262;29;20193;-87
2023/02/28 02:53:55;;;;;;;1.35;0.98;;;17.80;40.30;;;;;;4820070;29;20197;-87
2023/02/28 02:56:27;;;;;;;1.77;1.23;;;17.90;40.80;;;;;;4819717;29;20190;-87
2023/02/28 02:58:54;;;;;;;1.10;0.98;;;17.90;40.80;;;;;;4819868;29;20190;-87
2023/02/28 03:01:27;;;;;;;0.90;0.80;;;17.90;40.80;;;;;;4828390;29;20185;-87
2023/02/28 03:04:04;;;;;;;1.10;1.00;;;17.90;40.80;;;;;;4835227;29;20201;-87
2023/02/28 03:06:31;;;;;;;1.55;1.27;;;17.90;40.90;;;;;;4816665;29;20191;-87
2023/02/28 03:09:08;;;;;;;1.05;0.82;;;17.90;40.80;;;;;;4817001;29;20218;-87
2023/02/28 03:11:39;;;;;;;1.17;1.00;;;18.00;41.00;;;;;;4798431;29;20219;-87
2023/02/28 03:14:39;;;;;;;1.13;0.95;;;17.80;40.90;;;;;;4827059;29;20284;-87
2023/02/28 03:17:29;;;;;;;1.25;1.10;;;17.90;40.90;;;;;;4853382;29;20182;-87
2023/02/28 03:20:15;;;;;;;1.30;0.98;;;18.00;41.00;;;;;;4853284;29;20169;-87
2023/02/28 03:23:01;;;;;;;1.75;1.08;;;17.90;41.00;;;;;;4853415;29;20232;-87
2023/02/28 03:25:53;;;;;;;2.03;1.20;;;17.90;41.10;;;;;;4837157;29;20180;-87
2023/02/28 03:28:31;;;;;;;1.13;1.02;;;17.90;41.00;;;;;;4836840;29;20225;-87
2023/02/28 03:31:11;;;;;;;1.40;0.88;;;17.90;40.90;;;;;;4822312;29;20258;-87
2023/02/28 03:33:42;;;;;;;1.50;1.10;;;17.90;41.00;;;;;;4825493;29;20272;-87
2023/02/28 03:36:12;;;;;;;1.30;0.90;;;17.90;41.10;;;;;;4893161;29;20172;-87
2023/02/28 03:38:40;;;;;;;1.25;1.00;;;17.80;40.90;;;;;;4870507;29;20189;-87
2023/02/28 03:41:24;;;;;;;1.50;1.05;;;17.90;41.10;;;;;;4855738;29;20188;-87
2023/02/28 03:43:54;;;;;;;1.48;0.93;;;17.90;41.00;;;;;;4856627;29;20232;-87
2023/02/28 03:46:28;;;;;;;0.93;0.85;;;17.80;41.00;;;;;;4840645;29;20614;-87
2023/02/28 03:49:06;;;;;;;1.60;1.02;;;17.90;41.10;;;;;;4855906;29;20231;-87
2023/02/28 03:51:37;;;;;;;1.02;0.93;;;17.80;41.10;;;;;;4859522;29;20175;-87
2023/02/28 03:54:08;;;;;;;1.60;0.95;;;17.90;41.20;;;;;;4836439;29;20656;-87
2023/02/28 03:56:45;;;;;;;1.33;1.00;;;17.90;41.10;;;;;;4817582;29;20190;-87
2023/02/28 03:59:15;;;;;;;1.10;0.90;;;17.90;41.10;;;;;;4818950;29;20594;-87
2023/02/28 04:01:43;;;;;;;1.00;0.90;;;17.80;41.00;;;;;;4817277;29;20876;-87
2023/02/28 04:04:11;;;;;;;1.48;0.80;;;17.80;41.20;;;;;;4802840;29;20204;-87
2023/02/28 04:06:41;;;;;;;1.27;0.90;;;17.90;41.20;;;;;;4817958;29;20178;-87
2023/02/28 04:09:16;;;;;;;1.17;0.90;;;17.80;41.10;;;;;;4800120;29;20215;-87
2023/02/28 04:11:49;;;;;;;1.33;0.90;;;17.80;41.00;;;;;;4799747;29;20278;-87
2023/02/28 04:14:16;;;;;;;1.48;1.05;;;17.80;41.20;;;;;;4799948;29;20183;-87
2023/02/28 04:16:44;;;;;;;1.02;0.93;;;17.80;41.10;;;;;;4828253;29;20526;-87
2023/02/28 04:19:11;;;;;;;1.00;0.90;;;17.80;41.10;;;;;;4821672;29;20287;-87
2023/02/28 04:21:41;;;;;;;0.90;0.75;;;17.80;41.10;;;;;;4821793;29;20307;-87
2023/02/28 04:24:14;;;;;;;0.82;0.80;;;17.80;41.20;;;;;;4803230;29;20210;-87
2023/02/28 04:26:45;;;;;;;1.17;0.98;;;17.70;41.10;;;;;;4802204;29;20210;-87
2023/02/28 04:29:13;;;;;;;0.93;0.82;;;17.80;41.20;;;;;;4817404;29;20233;-86
2023/02/28 04:31:41;;;;;;;1.17;0.80;;;17.80;41.30;;;;;;4817020;29;20186;-87
2023/02/28 04:34:10;;;;;;;1.10;1.00;;;17.80;41.30;;;;;;4817653;29;20197;-87
2023/02/28 04:36:53;;;;;;;1.38;0.90;;;17.70;41.20;;;;;;4818385;29;20190;-87
2023/02/28 04:39:19;;;;;;;0.90;0.90;;;17.70;41.20;;;;;;4819465;29;20219;-87
2023/02/28 04:41:46;;;;;;;2.58;0.98;;;17.70;41.30;;;;;;4816588;29;20189;-86
2023/02/28 04:44:12;;;;;;;1.10;0.98;;;17.80;41.40;;;;;;4852549;29;20196;-87
2023/02/28 04:46:39;;;;;;;1.13;1.00;;;17.70;41.30;;;;;;4853098;29;20191;-86
2023/02/28 04:49:05;;;;;;;1.42;0.90;;;17.70;41.30;;;;;;4883657;29;20760;-87
2023/02/28 04:51:30;;;;;;;1.92;0.98;;;17.80;41.30;;;;;;4883921;29;20185;-86
2023/02/28 04:54:00;;;;;;;1.05;0.95;;;17.80;41.30;;;;;;4853012;29;20184;-87
2023/02/28 04:56:27;;;;;;;1.00;0.88;;;17.70;41.20;;;;;;4868585;29;20185;-87
2023/02/28 04:58:54;;;;;;;0.80;0.70;;;17.80;41.30;;;;;;4865013;29;20198;-87
2023/02/28 05:01:26;;;;;;;1.10;1.00;;;17.80;41.30;;;;;;4850388;29;20199;-86
2023/02/28 05:03:55;;;;;;;1.70;1.10;;;17.70;41.40;;;;;;4856715;29;20196;-87
2023/02/28 05:06:21;;;;;;;0.98;0.75;;;17.70;41.20;;;;;;4853753;29;20176;-87
2023/02/28 05:08:52;;;;;;;1.20;0.70;;;17.70;41.30;;;;;;4842017;29;20212;-87
2023/02/28 05:11:27;;;;;;;1.23;1.00;;;17.80;41.20;;;;;;4842101;29;20249;-87
2023/02/28 05:13:53;;;;;;;0.85;0.77;;;17.70;41.30;;;;;;4856676;29;20165;-87
2023/02/28 05:16:19;;;;;;;1.15;0.80;;;17.70;41.40;;;;;;4862587;29;20188;-87
2023/02/28 05:18:45;;;;;;;1.40;0.82;;;17.70;41.30;;;;;;4878915;29;20182;-86
2023/02/28 05:21:36;;;;;;;1.00;0.90;;;17.70;41.30;;;;;;4882319;29;20210;-86
2023/02/28 05:24:05;;;;;;;0.80;0.80;;;17.70;41.40;;;;;;4894938;29;20179;-86
2023/02/28 05:26:34;;;;;;;1.67;0.90;;;17.70;41.40;;;;;;4895404;29;20255;-86
2023/02/28 05:29:02;;;;;;;2.78;1.48;;;17.70;41.40;;;;;;4896964;29;20215;-86
2023/02/28 05:31:30;;;;;;;1.95;0.93;;;17.70;41.40;;;;;;4897508;29;20187;-86
2023/02/28 05:33:56;;;;;;;1.23;0.93;;;17.70;41.20;;;;;;4898008;29;20183;-86
2023/02/28 05:36:22;;;;;;;0.80;0.80;;;17.70;41.30;;;;;;4898507;29;20209;-86
2023/02/28 05:38:48;;;;;;;1.50;1.00;;;17.70;41.40;;;;;;4896691;29;20183;-86
2023/02/28 05:41:14;;;;;;;1.08;0.90;;;17.70;41.40;;;;;;4882722;29;20194;-87
2023/02/28 05:43:42;;;;;;;1.13;0.98;;;17.60;41.40;;;;;;4896902;29;20187;-86
2023/02/28 05:46:12;;;;;;;0.88;0.80;;;17.70;41.50;;;;;;4898109;29;20171;-86
2023/02/28 05:48:39;;;;;;;0.82;0.68;;;17.70;41.60;;;;;;4898042;29;20202;-86
2023/02/28 05:51:12;;;;;;;0.80;0.80;;;17.70;41.50;;;;;;4876297;29;20707;-86
2023/02/28 05:53:40;;;;;;;1.10;0.80;;;17.70;41.50;;;;;;4860394;29;20184;-86
2023/02/28 05:56:06;;;;;;;0.80;0.80;;;17.60;41.50;;;;;;4860090;29;20195;-86
2023/02/28 05:58:34;;;;;;;0.60;0.60;;;17.70;41.50;;;;;;4853083;29;20703;-86
2023/02/28 06:01:34;;;;;;;0.90;0.90;;;17.70;41.60;;;;;;4822946;29;20193;-86
2023/02/28 06:04:08;;;;;;;1.58;0.90;;;17.70;41.60;;;;;;4838764;29;20185;-86
2023/02/28 06:06:39;;;;;;;1.05;0.90;;;17.70;41.60;;;;;;4852800;29;20814;-86
2023/02/28 06:09:08;;;;;;;1.05;0.90;;;17.70;41.60;;;;;;4852347;29;20217;-86
2023/02/28 06:11:36;;;;;;;1.02;0.90;;;17.60;41.60;;;;;;4837068;29;20212;-86
2023/02/28 06:14:02;;;;;;;1.65;0.82;;;17.60;41.60;;;;;;4837327;29;20198;-86
2023/02/28 06:16:33;;;;;;;1.17;0.98;;;17.60;41.60;;;;;;4836236;29;20189;-86
2023/02/28 06:19:06;;;;;;;0.90;0.82;;;17.60;41.60;;;;;;4834658;29;20280;-86
2023/02/28 06:21:37;;;;;;;0.82;0.80;;;17.60;41.50;;;;;;4846158;29;20196;-86
2023/02/28 06:24:05;;;;;;;1.35;0.90;;;17.60;41.50;;;;;;4872992;29;20194;-86
2023/02/28 06:26:33;;;;;;;0.90;0.70;;;17.60;41.60;;;;;;4857336;29;20520;-86
2023/02/28 06:29:00;;;;;;;1.05;0.80;;;17.70;41.60;;;;;;4873444;29;20241;-86
2023/02/28 06:31:28;;;;;;;1.95;0.88;;;17.60;41.50;;;;;;4929460;29;20176;-86
2023/02/28 06:33:56;;;;;;;1.17;0.85;;;17.70;41.60;;;;;;4913169;29;20625;-85
2023/02/28 06:36:25;;;;;;;1.17;0.80;;;17.60;41.50;;;;;;4896980;29;20170;-86
2023/02/28 06:38:55;;;;;;;1.42;1.00;;;17.70;41.60;;;;;;4913001;29;20622;-85
2023/02/28 06:41:24;;;;;;;0.80;0.80;;;17.70;41.60;;;;;;4912230;29;20265;-86
2023/02/28 06:43:53;;;;;;;1.05;0.95;;;17.70;41.60;;;;;;4897263;29;20633;-86
2023/02/28 06:46:26;;;;;;;1.08;0.80;;;17.70;41.70;;;;;;4895895;29;20174;-85
2023/02/28 06:48:51;;;;;;;0.80;0.77;;;17.70;41.70;;;;;;4907323;29;20297;-86
2023/02/28 06:51:22;;;;;;;1.10;0.93;;;17.70;41.70;;;;;;4907366;29;20217;-85
2023/02/28 06:53:50;;;;;;;0.95;0.70;;;17.70;41.60;;;;;;4906676;29;20745;-86
2023/02/28 06:56:16;;;;;;;0.90;0.80;;;17.70;41.60;;;;;;4906048;29;20170;-85
2023/02/28 06:58:53;;;;;;;1.20;0.93;;;17.60;41.60;;;;;;4906575;29;20210;-86
2023/02/28 07:01:19;;;;;;;1.20;0.90;;;17.60;41.70;;;;;;4907644;29;20635;-85
2023/02/28 07:03:45;;;;;;;1.50;0.98;;;17.70;41.60;;;;;;4907282;29;20190;-85
2023/02/28 07:06:13;;;;;;;2.03;0.75;;;17.60;41.50;;;;;;4923061;29;20177;-86
2023/02/28 07:08:40;;;;;;;0.80;0.75;;;17.70;41.60;;;;;;4923585;29;20230;-85
2023/02/28 07:11:07;;;;;;;1.23;0.90;;;17.70;41.60;;;;;;4908328;29;20171;-87
2023/02/28 07:13:34;;;;;;;0.75;0.70;;;17.60;41.60;;;;;;4907416;29;20171;-85
2023/02/28 07:16:02;;;;;;;1.00;0.80;;;17.70;41.60;;;;;;4907116;29;20234;-86
2023/02/28 07:18:30;;;;;;;1.17;0.80;;;17.70;41.50;;;;;;4907695;29;20190;-85
2023/02/28 07:20:56;;;;;;;0.90;0.70;;;17.70;41.60;;;;;;4911879;29;20228;-86
2023/02/28 07:23:27;;;;;;;1.08;0.80;;;17.70;41.50;;;;;;4896753;29;20178;-86
2023/02/28 07:25:54;;;;;;;0.88;0.88;;;17.70;41.60;;;;;;4945300;29;20209;-86
2023/02/28 07:28:24;;;;;;;0.75;0.73;;;17.70;41.50;;;;;;4896414;29;20209;-86
2023/02/28 07:30:52;;;;;;;1.08;0.80;;;17.70;41.50;;;;;;4910867;29;20712;-86
2023/02/28 07:33:19;;;;;;;0.68;0.60;;;17.70;41.50;;;;;;4912083;29;20178;-86
2023/02/28 07:35:44;;;;;;;1.00;0.82;;;17.70;41.50;;;;;;4896432;29;20238;-86
2023/02/28 07:38:13;;;;;;;0.98;0.80;;;17.70;41.40;;;;;;4897175;29;20186;-86
2023/02/28 07:40:40;;;;;;;0.93;0.82;;;17.80;41.30;;;;;;4913083;29;20173;-86
2023/02/28 07:43:06;;;;;;;0.60;0.60;;;17.80;41.20;;;;;;4896218;29;20217;-85
2023/02/28 07:45:39;;;;;;;0.80;0.80;;;17.90;41.10;;;;;;4913184;29;20185;-87
2023/02/28 07:48:05;;;;;;;1.15;1.02;;;17.90;41.10;;;;;;4932674;29;20161;-86
2023/02/28 07:50:36;;;;;;;0.88;0.68;;;18.00;41.00;;;;;;4913583;29;20542;-86
2023/02/28 07:53:06;;;;;;;1.13;0.80;;;18.10;40.90;;;;;;4918666;29;20282;-86
2023/02/28 07:55:34;;;;;;;0.50;0.50;;;18.10;40.70;;;;;;4932734;29;20217;-86
2023/02/28 07:58:00;;;;;;;1.15;0.90;;;18.10;40.70;;;;;;4871204;29;20183;-85
2023/02/28 08:00:31;;;;;;;0.75;0.70;;;18.10;40.70;;;;;;4798294;29;20216;-86
2023/02/28 08:03:11;;;;;;;0.77;0.70;;;18.10;40.70;;;;;;4811349;29;20598;-86
2023/02/28 08:05:40;;;;;;;1.08;0.70;;;18.20;40.70;;;;;;4811407;29;20278;-86
2023/02/28 08:08:10;;;;;;;0.55;0.47;;;18.30;40.50;;;;;;4809705;29;20175;-86
2023/02/28 08:10:37;;;;;;;0.70;0.70;;;18.40;40.30;;;;;;4811079;29;20320;-86
2023/02/28 08:13:03;;;;;;;2.55;0.70;;;18.40;40.10;;;;;;4808426;29;20170;-86
2023/02/28 08:15:29;;;;;;;0.60;0.60;;;18.30;40.10;;;;;;4808933;29;20332;-85
2023/02/28 08:17:59;;;;;;;1.13;0.73;;;18.50;40.10;;;;;;4808062;29;20208;-85
2023/02/28 08:20:27;;;;;;;3.10;0.75;;;18.50;39.90;;;;;;4810466;29;20194;-86
2023/02/28 08:22:53;;;;;;;1.17;0.70;;;18.60;39.80;;;;;;4839797;29;20189;-85
2023/02/28 08:25:19;;;;;;;1.15;0.70;;;18.60;39.90;;;;;;4832655;29;20188;-86
2023/02/28 08:27:45;;;;;;;1.95;0.80;;;18.50;39.90;;;;;;4830518;29;20264;-85
2023/02/28 08:30:16;;;;;;;1.02;0.73;;;18.60;39.80;;;;;;4830619;29;20356;-86
2023/02/28 08:32:45;;;;;;;0.70;0.60;;;18.60;39.70;;;;;;4871124;29;20648;-85
2023/02/28 08:35:13;;;;;;;0.77;0.50;;;18.70;39.70;;;;;;4889360;29;20179;-84
2023/02/28 08:37:42;;;;;;;0.55;0.50;;;18.70;39.50;;;;;;4879168;29;20167;-84
2023/02/28 08:40:17;;;;;;;1.05;0.55;;;18.70;40.30;;;;;;4930049;29;20190;-86
2023/02/28 08:42:47;;;;;;;0.65;0.50;;;18.60;40.00;;;;;;4887177;29;20201;-84
2023/02/28 08:49:01;;;;;;;0.80;0.52;;;18.50;40.10;;;;;;4897843;29;20223;-86
2023/02/28 08:51:32;;;;;;;2.05;0.65;;;18.60;39.80;;;;;;4896105;29;20190;-86
2023/02/28 08:54:12;;;;;;;2.35;0.70;;;18.70;39.90;;;;;;4893899;29;20179;-86
2023/02/28 08:56:47;;;;;;;2.60;0.77;;;18.70;39.90;;;;;;4894764;29;20662;-87
2023/02/28 08:59:22;;;;;;;1.25;0.60;;;18.80;39.70;;;;;;4868947;29;20187;-86
2023/02/28 09:02:43;;;;;;;0.60;0.52;;;18.80;39.70;;;;;;4866694;29;20184;-87
2023/02/28 09:05:24;;;;;;;;;;;;;;;;;;;;;
2023/02/28 09:08:21;;;;;;;2.25;0.60;;;18.80;39.70;;;;;;4779388;30;20222;-87
2023/02/28 10:46:14;;;;;;;8.18;1.20;;;19.00;41.10;;;;;;4961845;29;20819;-88
2023/02/28 10:49:07;;;;;;;8.52;0.98;;;18.90;41.30;;;;;;4888012;29;20632;-85
2023/02/28 10:51:37;;;;;;;7.47;0.88;;;18.90;41.00;;;;;;4949082;29;20188;-85
2023/02/28 10:54:40;;;;;;;;;;;;;;;;;;;;;
2023/02/28 10:57:25;;;;;;;3.55;0.80;;;19.00;40.90;;;;;;4881507;29;20198;-84
2023/02/28 11:00:25;;;;;;;;;;;;;;;;;;;;;
2023/02/28 11:03:34;;;;;;;5.82;1.02;;;18.90;41.30;;;;;;4810240;29;20281;-85
2023/02/28 11:06:34;;;;;;;8.45;0.75;;;18.90;41.40;;;;;;4741888;30;20231;-86
2023/02/28 11:09:05;;;;;;;3.22;0.70;;;18.80;41.30;;;;;;4729364;30;20220;-87
2023/02/28 11:11:40;;;;;;;5.00;0.57;;;18.80;41.30;;;;;;4729038;30;20196;-86
2023/02/28 11:14:21;;;;;;;6.80;0.88;;;18.90;41.50;;;;;;4731885;30;20188;-87
2023/02/28 11:17:03;;;;;;;4.25;0.60;;;18.80;41.20;;;;;;4735124;30;20188;-86
2023/02/28 11:20:06;;;;;;;7.60;0.90;;;18.80;41.20;;;;;;4719262;30;20197;-86
2023/02/28 11:22:40;;;;;;;8.25;0.60;;;18.80;41.40;;;;;;4696076;30;20560;-86
2023/02/28 11:25:13;;;;;;;3.30;0.77;;;18.80;41.10;;;;;;4695781;30;20198;-86
2023/02/28 11:28:21;;;;;;;;;;;;;;;;;;;;;
2023/02/28 11:30:59;;;;;;;7.07;1.35;;;18.80;41.20;;;;;;4720002;30;20289;-86
2023/02/28 11:33:37;;;;;;;6.65;0.82;;;18.90;41.20;;;;;;4693626;30;20206;-85
2023/02/28 11:36:14;;;;;;;13.43;1.42;;;18.80;41.20;;;;;;4703477;30;20214;-86
2023/02/28 11:38:49;;;;;;;10.05;1.38;;;18.90;41.10;;;;;;4695177;30;20170;-86
2023/02/28 11:41:41;;;;;;;8.13;0.93;;;18.90;41.20;;;;;;4742343;30;20193;-87
2023/02/28 11:44:13;;;;;;;12.73;2.05;;;18.80;41.30;;;;;;4754934;30;20922;-86
2023/02/28 11:46:53;;;;;;;7.80;1.08;;;18.80;41.30;;;;;;4775977;30;20201;-87
2023/02/28 11:49:48;;;;;;;4.25;0.95;;;18.80;41.40;;;;;;4795275;30;20226;-86
2023/02/28 11:52:35;;;;;;;8.85;1.00;;;18.80;41.20;;;;;;4799331;30;20187;-88
2023/02/28 11:55:41;;;;;;;5.38;0.80;;;18.80;41.20;;;;;;4797815;30;20174;-88
2023/02/28 11:58:49;;;;;;;7.82;1.20;;;18.70;41.20;;;;;;4753109;30;20256;-86
2023/02/28 12:01:26;;;;;;;15.75;1.45;;;18.80;41.20;;;;;;4852575;29;20276;-87
2023/02/28 12:04:20;;;;;;;14.00;1.20;;;18.80;41.20;;;;;;4823226;29;20186;-87
2023/02/28 12:06:56;;;;;;;16.33;1.55;;;18.80;41.20;;;;;;4821287;29;20721;-87
2023/02/28 12:43:02;;;;;;;9.65;1.10;;;18.70;41.50;;;;;;6021903;23;20176;-85
2023/02/28 12:45:52;;;;;;;12.07;1.08;;;18.70;41.20;;;;;;4966518;28;20274;-84
2023/02/28 12:48:52;;;;;;;5.43;0.60;;;18.70;41.00;;;;;;4970119;29;20172;-85
2023/02/28 12:51:24;;;;;;;8.00;1.10;;;18.80;40.80;;;;;;4950077;29;20189;-85
2023/02/28 12:54:16;;;;;;;8.40;1.05;;;18.80;40.90;;;;;;4933579;29;20178;-87
2023/02/28 12:56:49;;;;;;;6.13;0.80;;;18.80;40.70;;;;;;4932181;29;20197;-86
2023/02/28 12:59:30;;;;;;;8.30;1.00;;;18.80;41.00;;;;;;4931964;29;20182;-85
2023/02/28 13:02:21;;;;;;;6.00;0.77;;;18.80;41.00;;;;;;4931836;29;20587;-86
2023/02/28 13:05:05;;;;;;;10.15;0.80;;;18.80;40.70;;;;;;4930134;29;20241;-86
2023/02/28 13:07:52;;;;;;;5.68;0.88;;;18.80;40.80;;;;;;4933984;29;20214;-86
2023/02/28 13:10:19;;;;;;;13.55;1.35;;;18.70;40.80;;;;;;4947986;29;20230;-87
2023/02/28 13:12:50;;;;;;;5.55;1.10;;;18.70;40.80;;;;;;4933744;29;20175;-87
2023/02/28 13:15:24;;;;;;;8.73;0.70;;;18.80;40.80;;;;;;4933072;29;20625;-86
2023/02/28 13:17:52;;;;;;;11.77;0.90;;;18.70;40.70;;;;;;4949068;29;20162;-86
2023/02/28 13:20:20;;;;;;;3.58;0.70;;;18.80;40.80;;;;;;4933469;29;20210;-87
2023/02/28 13:22:51;;;;;;;5.00;0.65;;;18.80;40.70;;;;;;4950319;29;20212;-87
2023/02/28 13:25:51;;;;;;;6.85;0.93;;;18.80;40.50;;;;;;4952169;29;20233;-86
2023/02/28 13:29:00;;;;;;;4.20;0.80;;;18.80;40.40;;;;;;4953377;29;20177;-87
2023/02/28 13:31:26;;;;;;;2.65;0.57;;;18.80;40.50;;;;;;4966760;28;20177;-87
2023/02/28 13:34:15;;;;;;;6.70;0.80;;;18.80;40.40;;;;;;4951345;29;20164;-88
2023/02/28 13:37:13;;;;;;;4.78;0.80;;;18.90;40.30;;;;;;4928738;29;20277;-86
2023/02/28 13:39:56;;;;;;;5.05;0.63;;;18.90;40.20;;;;;;4910887;29;20190;-85
2023/02/28 13:42:50;;;;;;;3.38;0.47;;;18.90;40.00;;;;;;4899055;29;20214;-84
2023/02/28 13:45:23;;;;;;;2.75;0.70;;;19.00;40.00;;;;;;4883469;29;20348;-86
2023/02/28 13:48:03;;;;;;;2.67;0.50;;;18.90;40.20;;;;;;4893966;29;20179;-86
2023/02/28 13:50:37;;;;;;;4.15;0.60;;;19.00;40.20;;;;;;4895649;29;20248;-87
2023/02/28 13:53:42;;;;;;;3.75;0.50;;;18.90;40.90;;;;;;4900790;29;20187;-87
2023/02/28 13:56:38;;;;;;;3.47;0.55;;;19.00;40.00;;;;;;4902383;29;20187;-87
2023/02/28 13:59:34;;;;;;;1.80;0.80;;;19.10;39.80;;;;;;4888532;29;20187;-85
2023/02/28 14:02:35;;;;;;;2.10;0.50;;;19.10;39.80;;;;;;4868323;29;20185;-86
2023/02/28 14:05:16;;;;;;;2.72;0.52;;;19.10;39.70;;;;;;4861356;29;20200;-86
2023/02/28 14:07:53;;;;;;;7.05;0.77;;;19.20;39.70;;;;;;4864077;29;20192;-86
2023/02/28 14:20:44;;;;;;;2.97;0.40;;;19.10;39.80;;;;;;5665524;23;20243;-87
2023/02/28 14:23:37;;;;;;;5.20;1.05;;;19.10;39.60;;;;;;4923136;29;20196;-86
2023/02/28 14:26:32;;;;;;;2.55;0.50;;;19.10;39.60;;;;;;4947239;29;20180;-87
2023/02/28 14:33:12;;;;;;;2.08;0.47;;;19.20;39.40;;;;;;4902065;29;20206;-88
2023/02/28 14:36:04;;;;;;;0.40;0.40;;;19.10;39.60;;;;;;4875760;29;20193;-88
2023/02/28 14:38:41;;;;;;;1.40;0.40;;;19.10;39.70;;;;;;4844628;29;20245;-88
2023/02/28 14:41:21;;;;;;;0.45;0.30;;;19.00;39.70;;;;;;4841718;29;20189;-87
2023/02/28 14:43:59;;;;;;;1.33;0.47;;;19.00;39.80;;;;;;4843641;29;20189;-87
2023/02/28 14:46:49;;;;;;;5.38;0.50;;;18.90;40.00;;;;;;4825281;29;20286;-88
2023/02/28 14:49:37;;;;;;;0.88;0.55;;;18.90;39.90;;;;;;4804107;29;20318;-87
2023/02/28 14:52:46;;;;;;;2.75;0.50;;;18.90;39.80;;;;;;4825211;29;20198;-87
2023/02/28 14:55:53;;;;;;;2.38;0.43;;;18.90;39.70;;;;;;4840538;29;20218;-88
2023/02/28 14:59:03;;;;;;;3.33;0.50;;;19.00;39.60;;;;;;4838305;29;20192;-86
2023/02/28 15:01:56;;;;;;;;;;;;;;;;;;;;;
2023/02/28 15:05:12;;;;;;;0.88;0.50;;;19.00;39.60;;;;;;4813151;29;20214;-89
2023/02/28 15:07:40;;;;;;;4.35;0.65;;;18.90;39.70;;;;;;4815805;29;20191;-89
2023/02/28 15:10:37;;;;;;;5.95;1.02;;;18.90;39.80;;;;;;4815226;29;20231;-89
2023/02/28 15:13:47;;;;;;;9.32;1.40;;;18.80;39.90;;;;;;4782492;30;20199;-88
2023/02/28 15:16:52;;;;;;;7.78;0.85;;;18.80;40.10;;;;;;4780695;30;20223;-87
2023/02/28 15:19:39;;;;;;;2.80;0.50;;;18.80;40.10;;;;;;4772216;30;20192;-88
2023/02/28 15:22:17;;;;;;;6.68;0.75;;;18.80;39.90;;;;;;4773457;30;20388;-88
2023/02/28 15:24:51;;;;;;;4.43;0.60;;;18.80;40.00;;;;;;4763123;30;20203;-88
2023/02/28 15:27:46;;;;;;;3.00;0.60;;;18.80;40.60;;;;;;4781122;30;20741;-87
2023/02/28 15:52:48;;;;;;;13.00;1.35;;;19.00;39.50;;;;;;5288305;23;20240;-86
2023/02/28 15:55:47;;;;;;;;;;;;;;;;;;;;;
2023/02/28 15:58:18;;;;;;;8.95;1.10;;;19.00;39.40;;;;;;4852764;29;20269;-86
2023/02/28 16:00:50;;;;;;;9.77;0.90;;;19.10;39.30;;;;;;4838646;29;20216;-86
2023/02/28 16:03:26;;;;;;;12.13;1.02;;;19.00;39.40;;;;;;4850580;29;20190;-87
2023/02/28 16:06:26;;;;;;;16.17;1.20;;;19.00;39.60;;;;;;4835854;29;20177;-85
2023/02/28 16:08:56;;;;;;;16.58;1.05;;;18.90;39.60;;;;;;4839177;29;20288;-86
2023/02/28 16:11:22;;;;;;;4.65;0.93;;;18.90;39.80;;;;;;4837955;29;20186;-86
2023/02/28 16:14:20;;;;;;;4.60;0.70;;;18.80;39.80;;;;;;4823896;29;20197;-86
2023/02/28 16:16:50;;;;;;;7.28;0.70;;;18.90;40.00;;;;;;4802319;29;20198;-85
2023/02/28 16:19:28;;;;;;;2.53;0.50;;;18.90;39.90;;;;;;4800335;29;20213;-85
2023/02/28 16:21:53;;;;;;;4.28;0.73;;;18.90;40.00;;;;;;4813788;29;20233;-84
2023/02/28 16:24:28;;;;;;;4.50;0.60;;;18.80;39.80;;;;;;4805403;29;20194;-85
2023/02/28 16:26:55;;;;;;;4.15;0.68;;;18.90;39.60;;;;;;4805702;29;20235;-84